createdAt,value
2023-03-16T00:01:31.693Z,4.80
2023-03-16T00:03:36.961Z,5.00
2023-03-16T00:05:42.033Z,4.80
2023-03-16T00:07:44.675Z,4.68
2023-03-16T00:09:47.269Z,4.63
2023-03-16T00:11:49.677Z,4.40
2023-03-16T00:13:52.522Z,5.70
2023-03-16T00:15:56.663Z,5.20
2023-03-16T00:17:59.608Z,4.60
2023-03-16T00:20:07.149Z,4.35
2023-03-16T00:22:14.821Z,5.20
2023-03-16T00:24:18.242Z,4.70
2023-03-16T00:26:20.709Z,4.50
2023-03-16T00:28:23.794Z,5.70
2023-03-16T00:30:27.364Z,4.80
2023-03-16T00:32:33.331Z,4.65
2023-03-16T00:34:35.748Z,4.30
2023-03-16T00:36:39.193Z,5.30
2023-03-16T00:40:51.392Z,4.63
2023-03-16T00:42:55.187Z,4.90
2023-03-16T00:44:58.942Z,5.28
2023-03-16T00:47:01.858Z,4.65
2023-03-16T00:49:04.228Z,4.97
2023-03-16T00:51:18.080Z,5.07
2023-03-16T00:53:22.354Z,5.07
2023-03-16T00:55:28.636Z,5.18
2023-03-16T00:57:32.015Z,4.97
2023-03-16T00:59:36.732Z,4.53
2023-03-16T01:01:39.462Z,5.00
2023-03-16T01:03:45.739Z,4.90
2023-03-16T01:05:49.102Z,4.95
2023-03-16T01:07:52.399Z,5.47
2023-03-16T01:09:56.220Z,5.60
2023-03-16T01:12:01.254Z,4.93
2023-03-16T01:14:13.252Z,5.03
2023-03-16T01:16:19.080Z,5.15
2023-03-16T01:18:25.324Z,5.05
2023-03-16T01:20:28.329Z,5.28
2023-03-16T01:22:33.761Z,5.50
2023-03-16T01:24:39.005Z,5.20
2023-03-16T01:26:55.797Z,5.47
2023-03-16T01:29:05.146Z,4.88
2023-03-16T01:31:10.438Z,5.10
2023-03-16T01:33:13.232Z,5.70
2023-03-16T01:35:15.937Z,6.38
2023-03-16T01:37:18.557Z,5.53
2023-03-16T01:39:34.667Z,5.50
2023-03-16T01:41:37.628Z,6.60
2023-03-16T01:43:41.208Z,6.85
2023-03-16T01:48:16.645Z,5.32
2023-03-16T01:50:20.221Z,5.77
2023-03-16T01:52:26.062Z,5.75
2023-03-16T01:54:33.973Z,5.43
2023-03-16T01:56:40.396Z,6.55
2023-03-16T01:58:44.942Z,5.85
2023-03-16T02:00:47.598Z,6.18
2023-03-16T02:03:05.231Z,6.00
2023-03-16T02:05:20.888Z,5.82
2023-03-16T02:07:27.646Z,6.28
2023-03-16T02:09:31.052Z,6.00
2023-03-16T02:11:34.995Z,6.90
2023-03-16T02:13:43.755Z,6.40
2023-03-16T02:15:47.102Z,5.53
2023-03-16T02:17:50.522Z,6.28
2023-03-16T02:20:09.178Z,6.15
2023-03-16T02:22:14.178Z,6.15
2023-03-16T02:24:16.719Z,6.10
2023-03-16T02:26:29.001Z,6.47
2023-03-16T02:28:36.185Z,5.70
2023-03-16T02:30:41.617Z,6.93
2023-03-16T02:32:46.609Z,6.72
2023-03-16T02:34:49.439Z,6.68
2023-03-16T02:36:53.139Z,6.30
2023-03-16T02:38:59.489Z,6.53
2023-03-16T02:41:14.548Z,6.22
2023-03-16T02:43:22.481Z,6.30
2023-03-16T02:45:46.108Z,6.25
2023-03-16T02:47:53.548Z,6.55
2023-03-16T02:49:55.956Z,7.00
2023-03-16T02:51:58.400Z,6.72
2023-03-16T02:54:00.898Z,5.90
2023-03-16T02:56:07.793Z,6.50
2023-03-16T02:58:18.118Z,6.35
2023-03-16T03:02:34.831Z,6.65
2023-03-16T03:04:37.303Z,5.97
2023-03-16T03:06:42.100Z,6.85
2023-03-16T03:08:44.790Z,7.95
2023-03-16T03:10:48.312Z,6.53
2023-03-16T03:12:52.118Z,6.35
2023-03-16T03:14:57.418Z,7.05
2023-03-16T03:17:00.589Z,6.55
2023-03-16T03:19:05.834Z,6.82
2023-03-16T03:21:14.245Z,6.90
2023-03-16T03:23:17.220Z,6.82
2023-03-16T03:25:20.706Z,6.60
2023-03-16T03:27:23.299Z,6.35
2023-03-16T03:29:34.528Z,6.70
2023-03-16T03:31:37.514Z,6.53
2023-03-16T03:33:40.631Z,6.30
2023-03-16T03:35:45.992Z,7.32
2023-03-16T03:37:48.829Z,7.10
2023-03-16T03:39:53.588Z,6.85
2023-03-16T03:41:57.760Z,13.25
2023-03-16T03:44:01.023Z,6.53
2023-03-16T03:46:04.610Z,8.48
2023-03-16T03:48:10.927Z,6.57
2023-03-16T03:50:14.202Z,6.30
2023-03-16T03:52:39.458Z,6.88
2023-03-16T03:54:41.859Z,6.63
2023-03-16T03:56:58.705Z,6.70
2023-03-16T03:59:04.032Z,6.63
2023-03-16T04:01:29.343Z,7.00
2023-03-16T04:03:31.827Z,7.07
2023-03-16T04:05:34.522Z,7.88
2023-03-16T04:07:40.297Z,6.13
2023-03-16T04:09:45.933Z,7.53
2023-03-16T04:12:07.475Z,7.45
2023-03-16T04:14:10.112Z,6.78
2023-03-16T04:16:16.352Z,7.88
2023-03-16T04:18:21.153Z,7.38
2023-03-16T04:20:24.025Z,7.30
2023-03-16T04:22:27.117Z,8.25
2023-03-16T04:24:34.408Z,6.90
2023-03-16T04:26:37.161Z,7.07
2023-03-16T04:28:40.785Z,6.55
2023-03-16T04:30:46.021Z,7.70
2023-03-16T04:32:56.081Z,7.22
2023-03-16T04:34:59.563Z,7.60
2023-03-16T04:37:22.401Z,7.07
2023-03-16T04:39:26.209Z,6.82
2023-03-16T04:41:32.499Z,7.88
2023-03-16T04:43:57.876Z,7.82
2023-03-16T04:46:02.167Z,7.20
2023-03-16T04:48:06.707Z,6.88
2023-03-16T04:50:10.917Z,7.45
2023-03-16T04:52:13.793Z,7.72
2023-03-16T04:54:16.756Z,7.65
2023-03-16T04:56:20.176Z,8.23
2023-03-16T04:58:32.100Z,7.82
2023-03-16T05:00:41.695Z,7.32
2023-03-16T05:02:58.035Z,7.45
2023-03-16T05:05:00.653Z,7.00
2023-03-16T05:07:03.398Z,8.02
2023-03-16T05:09:10.445Z,6.95
2023-03-16T05:11:14.143Z,6.93
2023-03-16T05:13:26.020Z,7.30
2023-03-16T05:15:32.561Z,7.72
2023-03-16T05:17:44.421Z,7.22
2023-03-16T05:19:48.558Z,8.10
2023-03-16T05:21:52.252Z,7.00
2023-03-16T05:23:55.063Z,8.50
2023-03-16T05:26:05.046Z,8.50
2023-03-16T05:28:19.733Z,7.80
2023-03-16T05:30:33.575Z,7.72
2023-03-16T05:32:39.910Z,8.07
2023-03-16T05:34:44.902Z,8.70
2023-03-16T05:36:50.963Z,8.35
2023-03-16T05:39:00.397Z,8.60
2023-03-16T05:41:10.553Z,8.55
2023-03-16T05:43:22.468Z,11.05
2023-03-16T05:45:27.607Z,9.38
2023-03-16T05:47:53.719Z,9.13
2023-03-16T05:49:56.736Z,9.65
2023-03-16T05:52:06.614Z,9.50
2023-03-16T05:54:11.004Z,12.05
2023-03-16T05:56:19.843Z,9.85
2023-03-16T05:58:22.623Z,9.88
2023-03-16T06:00:27.987Z,11.40
2023-03-16T06:02:49.346Z,8.70
2023-03-16T06:04:55.015Z,9.48
2023-03-16T06:06:58.032Z,8.60
2023-03-16T06:09:03.158Z,8.85
2023-03-16T06:11:08.748Z,8.27
2023-03-16T06:13:11.696Z,8.55
2023-03-16T06:15:15.007Z,11.27
2023-03-16T06:17:17.610Z,11.00
2023-03-16T06:19:20.101Z,9.18
2023-03-16T06:21:29.507Z,10.00
2023-03-16T06:23:38.431Z,9.88
2023-03-16T06:25:44.006Z,11.15
2023-03-16T06:27:47.837Z,9.95
2023-03-16T06:29:52.474Z,11.20
2023-03-16T06:31:54.917Z,10.48
2023-03-16T06:33:58.891Z,10.90
2023-03-16T06:36:01.934Z,9.73
2023-03-16T06:38:20.954Z,13.32
2023-03-16T06:40:31.753Z,10.98
2023-03-16T06:42:34.264Z,11.38
2023-03-16T06:44:37.587Z,10.27
2023-03-16T06:46:44.604Z,11.35
2023-03-16T06:48:47.572Z,11.25
2023-03-16T06:50:50.753Z,14.80
2023-03-16T06:52:58.572Z,11.65
2023-03-16T06:55:04.952Z,12.00
2023-03-16T06:57:11.664Z,16.75
2023-03-16T06:59:14.237Z,13.07
2023-03-16T07:01:17.591Z,10.88
2023-03-16T07:03:20.171Z,11.82
2023-03-16T07:05:28.288Z,11.90
2023-03-16T07:07:30.956Z,12.00
2023-03-16T07:09:36.389Z,14.07
2023-03-16T07:11:42.836Z,11.93
2023-03-16T07:13:47.681Z,12.02
2023-03-16T07:15:52.482Z,11.75
2023-03-16T07:17:56.410Z,11.73
2023-03-16T07:19:59.607Z,17.33
2023-03-16T07:22:03.512Z,30.73
2023-03-16T07:24:12.993Z,12.63
2023-03-16T07:26:16.726Z,12.77
2023-03-16T07:28:29.772Z,20.90
2023-03-16T07:30:34.604Z,14.38
2023-03-16T07:32:41.843Z,14.30
2023-03-16T07:34:48.848Z,13.68
2023-03-16T07:36:52.997Z,14.35
2023-03-16T07:38:57.180Z,15.20
2023-03-16T07:41:00.171Z,13.57
2023-03-16T07:43:04.351Z,14.70
2023-03-16T07:45:14.704Z,14.25
2023-03-16T07:47:19.139Z,14.65
2023-03-16T07:49:22.106Z,14.17
2023-03-16T07:51:25.385Z,13.85
2023-03-16T07:53:28.341Z,13.03
2023-03-16T07:55:47.537Z,13.85
2023-03-16T07:57:50.281Z,15.73
2023-03-16T08:00:00.127Z,13.18
2023-03-16T08:02:05.893Z,14.05
2023-03-16T08:04:10.115Z,25.27
2023-03-16T08:06:13.063Z,13.65
2023-03-16T08:08:18.247Z,14.68
2023-03-16T08:10:21.298Z,24.73
2023-03-16T08:12:34.450Z,18.25
2023-03-16T08:14:37.447Z,12.02
2023-03-16T08:16:48.610Z,13.88
2023-03-16T08:18:57.212Z,14.38
2023-03-16T08:21:00.678Z,20.42
2023-03-16T08:23:03.294Z,16.35
2023-03-16T08:25:13.464Z,13.73
2023-03-16T08:27:29.601Z,15.40
2023-03-16T08:29:35.583Z,19.13
2023-03-16T08:31:42.948Z,14.18
2023-03-16T08:33:57.346Z,14.93
2023-03-16T08:36:06.921Z,12.25
2023-03-16T08:38:10.152Z,22.33
2023-03-16T08:40:19.841Z,23.73
2023-03-16T08:42:23.809Z,11.05
2023-03-16T08:44:33.117Z,10.18
2023-03-16T08:46:37.895Z,11.65
2023-03-16T08:48:41.782Z,10.88
2023-03-16T08:50:47.383Z,9.93
2023-03-16T08:52:51.027Z,14.00
2023-03-16T08:55:02.936Z,8.88
2023-03-16T08:57:05.824Z,14.57
2023-03-16T08:59:19.871Z,7.80
2023-03-16T09:01:32.068Z,6.68
2023-03-16T09:03:36.282Z,6.78
2023-03-16T09:05:38.836Z,6.07
2023-03-16T09:07:44.325Z,5.90
2023-03-16T09:09:46.824Z,6.40
2023-03-16T09:11:49.954Z,6.35
2023-03-16T09:13:53.141Z,7.05
2023-03-16T09:15:56.806Z,6.28
2023-03-16T09:18:00.763Z,7.43
2023-03-16T09:20:19.623Z,7.15
2023-03-16T09:22:25.296Z,6.20
2023-03-16T09:24:30.663Z,6.55
2023-03-16T09:26:33.701Z,6.88
2023-03-16T09:28:38.797Z,5.93
2023-03-16T09:30:42.350Z,5.90
2023-03-16T09:32:47.955Z,7.03
2023-03-16T09:34:50.730Z,5.78
2023-03-16T09:36:53.694Z,6.30
2023-03-16T09:38:56.317Z,8.38
2023-03-16T09:41:06.856Z,5.95
2023-03-16T09:43:32.944Z,7.15
2023-03-16T09:45:41.927Z,6.82
2023-03-16T09:47:47.894Z,7.30
2023-03-16T09:49:52.979Z,7.90
2023-03-16T09:52:03.351Z,8.68
2023-03-16T09:54:19.381Z,8.48
2023-03-16T09:56:30.608Z,8.52
2023-03-16T09:58:33.317Z,8.18
2023-03-16T10:00:41.561Z,8.02
2023-03-16T10:02:58.983Z,6.70
2023-03-16T10:05:09.598Z,8.43
2023-03-16T10:07:23.160Z,10.88
2023-03-16T10:09:34.002Z,6.88
2023-03-16T10:11:41.969Z,7.43
2023-03-16T10:13:48.461Z,7.00
2023-03-16T10:15:53.839Z,6.80
2023-03-16T10:18:00.672Z,7.55
2023-03-16T10:20:09.153Z,6.70
2023-03-16T10:22:19.966Z,7.35
2023-03-16T10:24:36.804Z,7.40
2023-03-16T10:28:48.105Z,7.10
2023-03-16T10:30:53.211Z,6.93
2023-03-16T10:32:56.781Z,7.47
2023-03-16T10:35:06.292Z,6.95
2023-03-16T10:37:13.972Z,7.47
2023-03-16T10:39:24.857Z,7.50
2023-03-16T10:41:29.970Z,7.10
2023-03-16T10:43:37.044Z,8.98
2023-03-16T10:45:39.664Z,6.80
2023-03-16T10:47:42.259Z,7.38
2023-03-16T10:49:51.856Z,6.20
2023-03-16T10:51:57.937Z,6.18
2023-03-16T10:54:15.720Z,6.90
2023-03-16T10:56:25.342Z,6.45
2023-03-16T10:58:32.358Z,6.80
2023-03-16T11:00:41.926Z,6.65
2023-03-16T11:02:44.568Z,6.70
2023-03-16T11:04:48.148Z,8.75
2023-03-16T11:06:54.558Z,6.88
2023-03-16T11:09:05.373Z,7.22
2023-03-16T11:11:13.395Z,6.75
2023-03-16T11:13:19.712Z,7.45
2023-03-16T11:15:26.329Z,7.13
2023-03-16T11:17:36.565Z,8.48
2023-03-16T11:19:48.463Z,6.57
2023-03-16T11:21:56.053Z,6.90
2023-03-16T11:23:59.854Z,7.35
2023-03-16T11:26:07.429Z,8.77
2023-03-16T11:28:17.037Z,6.35
2023-03-16T11:30:24.921Z,6.45
2023-03-16T11:32:34.750Z,6.38
2023-03-16T11:34:37.329Z,6.03
2023-03-16T11:36:47.810Z,6.20
2023-03-16T11:39:00.248Z,6.35
2023-03-16T11:41:06.303Z,6.72
2023-03-16T11:43:25.063Z,6.68
2023-03-16T11:45:34.637Z,5.60
2023-03-16T11:48:16.032Z,6.10
2023-03-16T11:50:28.568Z,6.68
2023-03-16T11:52:50.705Z,6.10
2023-03-16T11:55:04.859Z,5.82
2023-03-16T11:57:22.293Z,5.82
2023-03-16T11:59:58.973Z,6.45
2023-03-16T12:02:27.133Z,5.63
2023-03-16T12:04:51.299Z,5.50
2023-03-16T12:07:17.653Z,7.32
2023-03-16T12:09:53.543Z,6.25
2023-03-16T12:12:00.391Z,5.68
2023-03-16T12:14:16.605Z,5.65
2023-03-16T12:16:33.044Z,6.47
2023-03-16T12:18:45.264Z,6.85
2023-03-16T12:20:56.401Z,6.45
2023-03-16T12:23:03.469Z,5.50
2023-03-16T12:25:17.814Z,5.53
2023-03-16T12:27:34.968Z,5.32
2023-03-16T12:29:57.014Z,7.00
2023-03-16T12:32:08.489Z,5.55
2023-03-16T12:34:21.708Z,5.93
2023-03-16T12:37:01.045Z,6.18
2023-03-16T12:39:09.307Z,5.88
2023-03-16T12:41:23.194Z,5.85
2023-03-16T12:43:38.489Z,5.43
2023-03-16T12:45:48.433Z,6.30
2023-03-16T12:47:59.661Z,5.72
2023-03-16T12:50:08.128Z,5.65
2023-03-16T12:52:13.530Z,6.88
2023-03-16T12:54:24.060Z,5.78
2023-03-16T12:56:32.265Z,5.70
2023-03-16T12:58:50.637Z,5.93
2023-03-16T13:00:58.330Z,5.75
2023-03-16T13:03:01.679Z,14.85
2023-03-16T13:05:10.531Z,10.48
2023-03-16T13:07:19.453Z,6.13
2023-03-16T13:09:28.282Z,7.70
2023-03-16T13:11:43.791Z,5.25
2023-03-16T13:13:52.326Z,14.85
2023-03-16T13:16:05.969Z,5.95
2023-03-16T13:18:23.377Z,5.30
2023-03-16T13:20:31.987Z,4.88
2023-03-16T13:22:55.583Z,6.95
2023-03-16T13:25:15.434Z,4.90
2023-03-16T13:27:24.303Z,5.45
2023-03-16T13:29:28.664Z,5.60
2023-03-16T13:33:40.892Z,8.30
2023-03-16T13:35:45.441Z,4.93
2023-03-16T13:38:08.452Z,5.22
2023-03-16T13:40:24.694Z,5.35
2023-03-16T13:42:31.658Z,5.30
2023-03-16T13:44:45.856Z,5.35
2023-03-16T13:47:13.836Z,5.63
2023-03-16T13:49:18.793Z,5.60
2023-03-16T13:51:31.006Z,7.28
2023-03-16T13:53:33.410Z,5.50
2023-03-16T13:55:39.253Z,5.72
2023-03-16T13:57:43.293Z,5.90
2023-03-16T13:59:46.074Z,5.20
2023-03-16T14:01:49.337Z,5.10
2023-03-16T14:03:52.598Z,5.38
2023-03-16T14:05:57.699Z,5.63
2023-03-16T14:08:01.128Z,5.85
2023-03-16T14:10:05.343Z,5.63
2023-03-16T14:12:14.813Z,5.20
2023-03-16T14:14:23.772Z,8.60
2023-03-16T14:16:28.592Z,5.78
2023-03-16T14:18:36.199Z,5.57
2023-03-16T14:20:41.738Z,5.68
2023-03-16T14:22:44.208Z,4.85
2023-03-16T14:24:53.866Z,5.30
2023-03-16T14:27:09.058Z,5.80
2023-03-16T14:29:21.498Z,5.32
2023-03-16T14:31:32.865Z,5.03
2023-03-16T14:33:42.063Z,5.30
2023-03-16T14:35:45.547Z,5.22
2023-03-16T14:37:52.021Z,5.18
2023-03-16T14:40:02.458Z,4.80
2023-03-16T14:42:06.929Z,4.82
2023-03-16T14:44:21.161Z,5.38
2023-03-16T14:46:28.622Z,5.20
2023-03-16T14:48:31.521Z,5.22
2023-03-16T14:50:34.922Z,5.00
2023-03-16T14:52:37.804Z,4.78
2023-03-16T14:54:40.769Z,4.70
2023-03-16T14:56:43.756Z,5.10
2023-03-16T14:58:46.300Z,8.00
2023-03-16T15:00:53.783Z,4.72
2023-03-16T15:03:00.586Z,7.57
2023-03-16T15:05:03.778Z,4.90
2023-03-16T15:07:21.359Z,4.85
2023-03-16T15:09:44.211Z,6.20
2023-03-16T15:11:46.717Z,5.05
2023-03-16T15:13:49.378Z,4.93
2023-03-16T15:15:55.541Z,20.88
2023-03-16T15:17:58.500Z,5.30
2023-03-16T15:20:01.407Z,5.50
2023-03-16T15:22:04.808Z,8.10
2023-03-16T15:24:12.250Z,4.97
2023-03-16T15:26:17.308Z,4.95
2023-03-16T15:28:22.226Z,4.85
2023-03-16T15:30:28.823Z,5.00
2023-03-16T15:32:34.050Z,4.60
2023-03-16T15:34:36.430Z,5.18
2023-03-16T15:36:52.218Z,4.72
2023-03-16T15:38:55.883Z,4.80
2023-03-16T15:40:59.475Z,4.20
2023-03-16T15:43:02.630Z,4.30
2023-03-16T15:45:11.088Z,4.93
2023-03-16T15:47:13.634Z,4.65
2023-03-16T15:49:18.960Z,4.55
2023-03-16T15:51:24.702Z,5.18
2023-03-16T15:53:35.583Z,4.97
2023-03-16T15:55:42.143Z,4.13
2023-03-16T15:57:45.641Z,4.28
2023-03-16T15:59:49.105Z,4.40
2023-03-16T16:01:52.803Z,4.78
2023-03-16T16:03:56.142Z,4.90
2023-03-16T16:06:01.992Z,4.32
2023-03-16T16:08:10.994Z,5.13
2023-03-16T16:10:16.930Z,5.00
2023-03-16T16:12:26.748Z,4.85
2023-03-16T16:14:29.517Z,4.60
2023-03-16T16:16:34.405Z,4.40
2023-03-16T16:18:37.484Z,4.57
2023-03-16T16:20:39.847Z,4.30
2023-03-16T16:22:45.210Z,4.82
2023-03-16T16:24:47.638Z,4.25
2023-03-16T16:26:55.580Z,4.50
2023-03-16T16:28:58.975Z,4.47
2023-03-16T16:31:02.133Z,4.85
2023-03-16T16:33:04.528Z,5.18
2023-03-16T16:35:13.711Z,4.57
2023-03-16T16:37:16.287Z,4.60
2023-03-16T16:39:22.015Z,4.65
2023-03-16T16:41:28.443Z,4.30
2023-03-16T16:43:34.728Z,4.10
2023-03-16T16:45:37.190Z,4.28
2023-03-16T16:47:39.621Z,4.43
2023-03-16T16:49:42.410Z,4.57
2023-03-16T16:51:44.833Z,4.22
2023-03-16T16:53:47.525Z,4.70
2023-03-16T16:55:53.348Z,4.25
2023-03-16T16:57:55.957Z,4.60
2023-03-16T16:59:58.541Z,4.50
2023-03-16T17:02:01.943Z,4.00
2023-03-16T17:04:06.320Z,4.28
2023-03-16T17:06:16.036Z,4.18
2023-03-16T17:08:19.051Z,4.22
2023-03-16T17:10:25.229Z,4.28
2023-03-16T17:12:30.343Z,4.10
2023-03-16T17:14:33.046Z,4.18
2023-03-16T17:16:37.208Z,5.18
2023-03-16T17:18:39.563Z,4.70
2023-03-16T17:20:42.111Z,3.92
2023-03-16T17:22:47.413Z,3.90
2023-03-16T17:24:49.956Z,4.47
2023-03-16T17:26:55.183Z,4.20
2023-03-16T17:29:02.525Z,4.22
2023-03-16T17:31:05.248Z,4.28
2023-03-16T17:33:14.018Z,4.47
2023-03-16T17:35:17.148Z,4.63
2023-03-16T17:37:22.234Z,4.47
2023-03-16T17:39:26.327Z,4.82
2023-03-16T17:41:32.971Z,4.53
2023-03-16T17:43:38.638Z,4.50
2023-03-16T17:45:45.381Z,4.85
2023-03-16T17:47:48.389Z,5.13
2023-03-16T17:49:51.532Z,5.75
2023-03-16T17:51:54.596Z,4.47
2023-03-16T17:53:58.429Z,4.72
2023-03-16T17:56:01.357Z,4.40
2023-03-16T17:58:04.288Z,4.75
2023-03-16T18:00:21.714Z,4.85
2023-03-16T18:02:44.487Z,4.70
2023-03-16T18:04:47.128Z,4.75
2023-03-16T18:06:51.293Z,4.47
2023-03-16T18:08:53.954Z,5.10
2023-03-16T18:11:00.050Z,4.97
2023-03-16T18:13:05.055Z,4.50
2023-03-16T18:15:14.805Z,5.10
2023-03-16T18:17:24.079Z,4.55
2023-03-16T18:19:31.955Z,5.28
2023-03-16T18:21:36.459Z,5.22
2023-03-16T18:23:39.816Z,5.22
2023-03-16T18:25:42.838Z,4.57
2023-03-16T18:27:45.390Z,4.75
2023-03-16T18:29:49.209Z,5.18
2023-03-16T18:31:54.313Z,4.97
2023-03-16T18:33:58.217Z,5.65
2023-03-16T18:36:05.598Z,5.05
2023-03-16T18:38:17.663Z,4.95
2023-03-16T18:40:21.023Z,5.00
2023-03-16T18:42:27.780Z,5.50
2023-03-16T18:44:30.630Z,5.25
2023-03-16T18:46:34.853Z,5.20
2023-03-16T18:50:43.734Z,4.80
2023-03-16T18:53:00.212Z,5.50
2023-03-16T18:55:02.962Z,4.78
2023-03-16T18:57:15.604Z,5.63
2023-03-16T18:59:18.042Z,5.40
2023-03-16T19:01:26.056Z,4.88
2023-03-16T19:03:31.778Z,4.57
2023-03-16T19:05:37.166Z,5.00
2023-03-16T19:07:42.969Z,5.63
2023-03-16T19:09:48.228Z,5.85
2023-03-16T19:11:51.903Z,5.28
2023-03-16T19:13:55.104Z,5.15
2023-03-16T19:15:58.662Z,5.40
2023-03-16T19:18:01.314Z,5.50
2023-03-16T19:20:04.726Z,4.97
2023-03-16T19:22:14.609Z,5.55
2023-03-16T19:24:23.030Z,5.22
2023-03-16T19:26:30.734Z,5.63
2023-03-16T19:28:37.307Z,5.80
2023-03-16T19:30:43.227Z,5.00
2023-03-16T19:32:48.305Z,4.90
2023-03-16T19:36:54.047Z,4.88
2023-03-16T19:38:58.032Z,4.85
2023-03-16T19:41:01.010Z,5.00
2023-03-16T19:43:21.667Z,5.25
2023-03-16T19:45:29.146Z,5.07
2023-03-16T19:47:33.712Z,5.90
2023-03-16T19:49:36.594Z,4.93
2023-03-16T19:51:39.187Z,4.57
2023-03-16T19:53:49.238Z,5.38
2023-03-16T19:55:54.059Z,5.20
2023-03-16T19:58:01.575Z,5.32
2023-03-16T20:00:16.791Z,5.40
2023-03-16T20:02:25.034Z,5.28
2023-03-16T20:04:28.507Z,5.07
2023-03-16T20:06:34.789Z,5.47
2023-03-16T20:08:37.640Z,5.07
2023-03-16T20:10:40.868Z,5.57
2023-03-16T20:12:46.304Z,5.43
2023-03-16T20:14:49.968Z,5.35
2023-03-16T20:16:56.122Z,5.15
2023-03-16T20:19:01.520Z,4.88
2023-03-16T20:21:09.640Z,5.13
2023-03-16T20:23:20.362Z,5.13
2023-03-16T20:25:23.828Z,4.93
2023-03-16T20:27:28.320Z,5.45
2023-03-16T20:29:33.263Z,5.60
2023-03-16T20:31:36.803Z,5.80
2023-03-16T20:33:43.771Z,6.50
2023-03-16T20:35:46.973Z,6.10
2023-03-16T20:37:50.840Z,5.70
2023-03-16T20:39:58.268Z,5.85
2023-03-16T20:42:01.441Z,5.65
2023-03-16T20:44:05.029Z,5.30
2023-03-16T20:46:08.459Z,5.33
2023-03-16T20:48:15.776Z,5.18
2023-03-16T20:50:28.080Z,5.60
2023-03-16T20:52:31.316Z,4.75
2023-03-16T20:54:33.768Z,5.50
2023-03-16T20:56:36.702Z,4.97
2023-03-16T20:58:39.703Z,5.82
2023-03-16T21:00:44.447Z,5.20
2023-03-16T21:02:49.981Z,4.78
2023-03-16T21:04:52.560Z,5.07
2023-03-16T21:06:57.974Z,4.80
2023-03-16T21:09:03.449Z,5.13
2023-03-16T21:11:18.779Z,4.47
2023-03-16T21:13:31.926Z,4.70
2023-03-16T21:15:34.624Z,4.90
2023-03-16T21:17:39.189Z,4.57
2023-03-16T21:19:46.981Z,5.00
2023-03-16T21:21:50.024Z,5.20
2023-03-16T21:23:55.064Z,5.43
2023-03-16T21:26:00.756Z,4.45
2023-03-16T21:28:05.484Z,4.70
2023-03-16T21:30:23.069Z,5.00
2023-03-16T21:32:27.837Z,4.95
2023-03-16T21:34:37.603Z,4.53
2023-03-16T21:36:41.333Z,5.17
2023-03-16T21:38:45.571Z,4.50
2023-03-16T21:40:50.775Z,4.43
2023-03-16T21:42:53.609Z,4.85
2023-03-16T21:44:56.191Z,10.95
2023-03-16T21:46:59.063Z,4.90
2023-03-16T21:49:03.684Z,5.10
2023-03-16T21:51:13.537Z,4.70
2023-03-16T21:53:27.329Z,5.10
2023-03-16T21:55:31.603Z,4.53
2023-03-16T21:57:37.448Z,4.55
2023-03-16T21:59:39.798Z,5.18
2023-03-16T22:02:00.294Z,4.78
2023-03-16T22:04:17.369Z,4.78
2023-03-16T22:06:20.662Z,5.25
2023-03-16T22:08:27.161Z,5.05
2023-03-16T22:10:30.724Z,5.00
2023-03-16T22:12:33.112Z,5.00
2023-03-16T22:14:41.955Z,4.57
2023-03-16T22:16:44.446Z,4.70
2023-03-16T22:18:49.065Z,4.63
2023-03-16T22:20:51.890Z,5.03
2023-03-16T22:22:55.879Z,5.15
2023-03-16T22:24:58.263Z,5.07
2023-03-16T22:27:00.705Z,5.03
2023-03-16T22:29:16.990Z,5.03
2023-03-16T22:31:29.858Z,5.10
2023-03-16T22:33:37.044Z,5.13
2023-03-16T22:35:39.808Z,4.78
2023-03-16T22:37:42.315Z,4.70
2023-03-16T22:39:47.520Z,5.45
2023-03-16T22:41:51.152Z,4.75
2023-03-16T22:43:54.277Z,5.15
2023-03-16T22:45:57.026Z,5.03
2023-03-16T22:48:12.507Z,5.15
2023-03-16T22:50:22.300Z,4.78
2023-03-16T22:52:30.959Z,4.88
2023-03-16T22:54:33.505Z,4.70
2023-03-16T22:56:36.216Z,5.05
2023-03-16T22:58:41.455Z,5.22
2023-03-16T23:00:44.840Z,4.93
2023-03-16T23:02:48.758Z,5.00
2023-03-16T23:04:56.072Z,5.30
2023-03-16T23:07:02.238Z,5.03
2023-03-16T23:09:07.697Z,5.20
2023-03-16T23:11:17.336Z,5.20
2023-03-16T23:13:24.690Z,5.13
2023-03-16T23:15:31.088Z,5.32
2023-03-16T23:17:33.714Z,5.32
2023-03-16T23:19:36.195Z,5.47
2023-03-16T23:21:41.438Z,4.93
2023-03-16T23:23:51.009Z,5.55
2023-03-16T23:26:04.161Z,5.20
2023-03-16T23:28:07.456Z,5.22
2023-03-16T23:30:22.983Z,5.15
2023-03-16T23:32:26.656Z,4.75
2023-03-16T23:34:29.389Z,5.40
2023-03-16T23:36:31.913Z,4.63
2023-03-16T23:38:39.895Z,4.85
2023-03-16T23:40:46.437Z,5.10
2023-03-16T23:42:50.007Z,4.70
2023-03-16T23:44:52.970Z,4.97
2023-03-16T23:46:55.533Z,5.25
2023-03-16T23:49:01.477Z,4.80
2023-03-16T23:51:06.299Z,5.13
2023-03-16T23:53:19.120Z,5.25
2023-03-16T23:55:27.644Z,5.10
2023-03-16T23:57:30.269Z,5.57
2023-03-16T23:59:33.431Z,5.35
